المنامة, Bahrain

03:04 PM AST on سبتهبر 27, 2016 (GMT +0300)
North Hamala | | Change Station

Elev 26 ft 26.15 °N, 50.47 °E | Updated 9 seconds ago

Clear
صافية
96.6 °F
Feels Like 114 °F
N
4.3
ريح متغير ريح from شرق
Gusts 4.9 mph

هذا اليوم
High -- | Low -- °F
--% Chance of Precip.
Yesterday
High -- | Low -- °F
Precip. -- في
الضغط 29.74 في
وضوح الرؤية -9999.0 أميال
سحابات
مؤشر الحرارة 114 °F
نقطة الندى 78 °F
الرطوبة 56%
Rainfall 0.00 في
عمق الثلج Not available.
5:28 AM 5:28 PM
الهلال الأخير, 12% visible
METAR OEDF 271200Z 06009KT CAVOK 38/17 Q1007 NOSIG
الضغط 29.74 في
وضوح الرؤية -9999.0 أميال
سحابات
مؤشر الحرارة 114 °F
نقطة الندى 78 °F
الرطوبة 56%
Rainfall 0.00 في
عمق الثلج Not available.
5:28 AM 5:28 PM
الهلال الأخير, 12% visible
METAR OEDF 271200Z 06009KT CAVOK 38/17 Q1007 NOSIG

10-Day Weather Forecast

No radar image for this location.
×

Almanac

علم الفلك

Sep. 27, 2016 Rise Set
Actual Time
Civil Twilight
Nautical Twilight
Astronomical Twilight
قمر
Length Of Visible Light
طول الیوم
Tomorrow will be .
, % of the Moon is Illuminated

Today's Extremes

Country Highs Country Lows

Community

WunderPhotos

Upload Photos

1,942,068 photos uploaded!

WunderBlog® & News

Nearby

جودة الهواء

  جودة الهواء AQ Index Pollutant
Not available.

عمق الثلج

Station Depth Elevation

Earthquake Activity

City Distance Mag. Time & Date
Minimum magnitude displayed is 2.5.

Coastal Water Temperatures

مكان درجات الحرارة

Stations

Nearby Weather Stations

Station Location الحرارة رياح باردة نقطة الندى الرطوبة ريح Precip. Elev تحديث Type